createdAt,value
2022-10-06T00:00:06.840Z,101977.94
2022-10-06T00:02:53.790Z,101977.94
2022-10-06T00:05:33.822Z,101972.22
2022-10-06T00:08:20.702Z,101971.97
2022-10-06T00:11:10.678Z,101979.44
2022-10-06T00:13:51.072Z,101973.16
2022-10-06T00:16:37.717Z,101970.66
2022-10-06T00:19:18.088Z,101975.34
2022-10-06T00:22:04.692Z,101976.22
2022-10-06T00:24:45.854Z,101965.53
2022-10-06T00:27:32.704Z,101968.88
2022-10-06T00:30:23.663Z,101969.72
2022-10-06T00:33:15.693Z,101962.78
2022-10-06T00:36:04.665Z,101971.66
2022-10-06T00:38:44.770Z,101972.25
2022-10-06T00:41:31.667Z,101971.44
2022-10-06T00:44:11.783Z,101968.16
2022-10-06T00:47:00.628Z,101966.78
2022-10-06T00:49:44.774Z,101978.41
2022-10-06T00:52:36.630Z,101968.50
2022-10-06T00:55:16.779Z,101968.25
2022-10-06T00:58:05.637Z,101966.31
2022-10-06T01:00:48.784Z,101958.84
2022-10-06T01:03:39.666Z,101964.66
2022-10-06T01:06:20.955Z,101960.31
2022-10-06T01:09:07.660Z,101958.13
2022-10-06T01:11:47.741Z,101953.72
2022-10-06T01:14:35.617Z,101955.09
2022-10-06T01:17:36.647Z,101957.06
2022-10-06T01:20:19.645Z,101954.00
2022-10-06T01:23:11.626Z,101944.13
2022-10-06T01:25:53.463Z,101946.03
2022-10-06T01:28:41.682Z,101948.22
2022-10-06T01:31:22.631Z,101939.69
2022-10-06T01:34:09.606Z,101940.81
2022-10-06T01:36:56.698Z,101939.44
2022-10-06T01:39:36.726Z,101940.28
2022-10-06T01:42:16.993Z,101931.16
2022-10-06T01:45:03.587Z,101934.19
2022-10-06T01:47:44.001Z,101938.03
2022-10-06T01:50:30.569Z,101939.97
2022-10-06T01:53:11.459Z,101929.28
2022-10-06T01:55:58.599Z,101930.94
2022-10-06T01:58:38.964Z,101925.19
2022-10-06T02:01:25.633Z,101921.91
2022-10-06T02:04:12.603Z,101924.97
2022-10-06T02:06:55.452Z,101918.97
2022-10-06T02:09:42.551Z,101924.75
2022-10-06T02:12:24.173Z,101923.09
2022-10-06T02:15:11.552Z,101917.06
2022-10-06T02:17:51.667Z,101908.53
2022-10-06T02:20:40.560Z,101909.06
2022-10-06T02:23:27.509Z,101911.31
2022-10-06T02:26:23.533Z,101914.31
2022-10-06T02:29:03.905Z,101903.88
2022-10-06T02:31:50.520Z,101909.13
2022-10-06T02:34:30.905Z,101909.91
2022-10-06T02:37:17.532Z,101908.03
2022-10-06T02:40:04.543Z,101902.19
2022-10-06T02:42:46.025Z,101905.53
2022-10-06T02:45:34.505Z,101903.31
2022-10-06T02:48:21.493Z,101903.88
2022-10-06T02:51:09.621Z,101913.75
2022-10-06T02:54:00.477Z,101900.03
2022-10-06T02:56:47.499Z,101909.38
2022-10-06T02:59:27.634Z,101905.47
2022-10-06T03:02:14.592Z,101907.94
2022-10-06T03:05:01.461Z,101908.25
2022-10-06T03:25:37.553Z,101908.38
2022-10-06T03:28:18.266Z,101912.22
2022-10-06T03:31:05.547Z,101913.81
2022-10-06T03:33:52.529Z,101913.81
2022-10-06T03:36:44.536Z,101912.66
2022-10-06T03:39:34.511Z,101913.19
2022-10-06T03:42:21.549Z,101917.81
2022-10-06T03:45:01.841Z,101920.88
2022-10-06T03:47:48.503Z,101912.88
2022-10-06T03:50:35.490Z,101915.38
2022-10-06T03:53:15.615Z,101923.41
2022-10-06T03:56:08.511Z,101918.72
2022-10-06T03:58:58.470Z,101911.28
2022-10-06T04:01:47.828Z,101907.13
2022-10-06T04:04:39.455Z,101914.88
2022-10-06T04:07:26.469Z,101920.06
2022-10-06T04:10:06.549Z,101924.47
2022-10-06T04:12:53.460Z,101920.88
2022-10-06T04:15:33.562Z,101922.22
2022-10-06T04:18:22.014Z,101916.75
2022-10-06T04:21:13.445Z,101921.41
2022-10-06T04:24:02.823Z,101917.53
2022-10-06T04:26:52.471Z,101922.44
2022-10-06T04:29:40.463Z,101926.31
2022-10-06T04:32:20.526Z,101925.97
2022-10-06T04:35:07.439Z,101930.38
2022-10-06T04:37:47.545Z,101933.09
2022-10-06T04:40:34.450Z,101931.09
2022-10-06T04:43:15.536Z,101929.09
2022-10-06T04:46:24.032Z,101928.03
2022-10-06T04:49:06.553Z,101933.19
2022-10-06T04:51:56.376Z,101933.06
2022-10-06T04:54:46.428Z,101928.63
2022-10-06T04:57:34.506Z,101933.06
2022-10-06T05:00:43.489Z,101931.75
2022-10-06T05:03:30.406Z,101932.91
2022-10-06T05:06:17.553Z,101926.88
2022-10-06T05:09:10.376Z,101929.94
2022-10-06T05:11:54.509Z,101927.69
2022-10-06T05:14:41.383Z,101937.47
2022-10-06T05:17:22.470Z,101938.16
2022-10-06T05:20:09.379Z,101932.78
2022-10-06T05:22:50.469Z,101942.06
2022-10-06T05:25:37.385Z,101933.06
2022-10-06T05:28:24.392Z,101938.50
2022-10-06T05:31:11.976Z,101929.91
2022-10-06T05:33:59.402Z,101943.59
2022-10-06T05:36:39.806Z,101952.56
2022-10-06T05:39:26.366Z,101944.84
2022-10-06T05:42:06.751Z,101944.50
2022-10-06T05:44:53.363Z,101943.91
2022-10-06T05:47:33.701Z,101939.19
2022-10-06T05:50:20.842Z,101942.66
2022-10-06T05:53:07.321Z,101953.09
2022-10-06T05:55:47.432Z,101944.53
2022-10-06T05:58:35.701Z,101945.69
2022-10-06T06:01:25.515Z,101943.81
2022-10-06T06:04:15.353Z,101948.56
2022-10-06T06:07:06.301Z,101948.72
2022-10-06T06:09:55.341Z,101947.75
2022-10-06T06:12:35.381Z,101946.22
2022-10-06T06:16:03.299Z,101950.31
2022-10-06T06:18:44.399Z,101948.06
2022-10-06T06:21:32.310Z,101939.53
2022-10-06T06:24:26.320Z,101948.53
2022-10-06T06:27:13.265Z,101947.91
2022-10-06T06:29:53.445Z,101947.63
2022-10-06T06:32:41.295Z,101943.44
2022-10-06T06:35:28.313Z,101942.09
2022-10-06T06:38:18.252Z,101941.44
2022-10-06T06:40:58.409Z,101938.16
2022-10-06T06:43:45.287Z,101944.00
2022-10-06T06:46:51.281Z,101942.03
2022-10-06T06:49:31.643Z,101945.94
2022-10-06T06:52:21.282Z,101948.84
2022-10-06T06:55:08.259Z,101952.09
2022-10-06T06:57:49.634Z,101951.28
2022-10-06T07:00:37.245Z,101947.78
2022-10-06T07:03:56.773Z,101950.31
2022-10-06T07:06:40.661Z,101939.94
2022-10-06T07:09:27.267Z,101943.31
2022-10-06T07:12:25.239Z,101949.59
2022-10-06T07:15:25.210Z,101936.28
2022-10-06T07:18:30.746Z,101935.44
2022-10-06T07:21:42.967Z,101935.69
2022-10-06T07:24:48.243Z,101926.13
2022-10-06T07:27:28.455Z,101934.94
2022-10-06T07:30:25.258Z,101937.28
2022-10-06T07:33:20.332Z,101937.88
2022-10-06T07:36:07.256Z,101925.53
2022-10-06T07:38:55.217Z,101927.25
2022-10-06T07:41:42.377Z,101928.19
2022-10-06T07:44:22.238Z,101930.75
2022-10-06T07:47:02.713Z,101926.75
2022-10-06T07:50:06.244Z,101926.13
2022-10-06T07:52:47.849Z,101927.16
2022-10-06T07:55:34.218Z,101930.91
2022-10-06T07:58:26.504Z,101921.59
2022-10-06T08:01:20.324Z,101923.84
2022-10-06T08:04:07.227Z,101928.03
2022-10-06T08:06:56.195Z,101922.25
2022-10-06T08:09:44.314Z,101924.53
2022-10-06T08:12:33.434Z,101918.41
2022-10-06T08:15:21.186Z,101919.53
2022-10-06T08:18:01.264Z,101916.63
2022-10-06T08:20:48.227Z,101914.28
2022-10-06T08:23:28.279Z,101910.13
2022-10-06T08:26:16.137Z,101899.88
2022-10-06T08:29:03.471Z,101895.19
2022-10-06T08:31:50.187Z,101907.66
2022-10-06T08:34:30.318Z,101902.13
2022-10-06T08:37:20.327Z,101903.97
2022-10-06T08:40:01.256Z,101904.16
2022-10-06T08:42:51.179Z,101902.25
2022-10-06T08:45:42.283Z,101901.34
2022-10-06T08:48:35.135Z,101899.09
2022-10-06T08:51:29.169Z,101900.97
2022-10-06T08:54:28.183Z,101897.06
2022-10-06T08:57:31.157Z,101897.47
2022-10-06T09:00:22.272Z,101894.19
2022-10-06T09:03:02.678Z,101885.84
2022-10-06T09:05:49.164Z,101890.44
2022-10-06T09:09:04.144Z,101889.34
2022-10-06T09:11:54.622Z,101891.81
2022-10-06T09:14:49.153Z,101901.91
2022-10-06T09:17:35.323Z,101906.75
2022-10-06T09:20:32.327Z,101907.94
2022-10-06T09:23:17.476Z,101911.97
2022-10-06T09:26:04.134Z,101906.97
2022-10-06T09:28:54.112Z,101894.69
2022-10-06T09:31:47.103Z,101900.22
2022-10-06T09:35:02.185Z,101902.72
2022-10-06T09:38:14.258Z,101901.59
2022-10-06T09:41:02.135Z,101896.69
2022-10-06T09:43:42.177Z,101896.25
2022-10-06T09:46:41.110Z,101892.38
2022-10-06T09:49:43.101Z,101892.97
2022-10-06T09:52:23.586Z,101889.03
2022-10-06T09:55:27.167Z,101890.25
2022-10-06T09:58:37.911Z,101886.06
2022-10-06T10:01:27.397Z,101900.13
2022-10-06T10:04:20.525Z,101888.09
2022-10-06T10:07:08.146Z,101888.19
2022-10-06T10:09:55.448Z,101887.94
2022-10-06T10:12:35.427Z,101884.41
2022-10-06T10:15:25.569Z,101884.78
2022-10-06T10:18:16.289Z,101879.09
2022-10-06T10:21:06.449Z,101874.25
2022-10-06T10:24:06.222Z,101884.44
2022-10-06T10:26:57.377Z,101877.16
2022-10-06T10:30:21.069Z,101873.41
2022-10-06T10:33:18.106Z,101870.25
2022-10-06T10:36:01.804Z,101869.78
2022-10-06T10:38:51.071Z,101873.81
2022-10-06T10:41:43.131Z,101872.78
2022-10-06T10:44:37.536Z,101872.66
2022-10-06T10:47:42.285Z,101856.84
2022-10-06T10:50:49.526Z,101852.34
2022-10-06T10:53:50.091Z,101844.41
2022-10-06T10:56:33.013Z,101850.69
2022-10-06T10:59:31.370Z,101847.91
2022-10-06T11:02:20.864Z,101844.34
2022-10-06T11:05:17.073Z,101830.03
2022-10-06T11:08:23.247Z,101821.72
2022-10-06T11:11:10.173Z,101819.13
2022-10-06T11:14:00.999Z,101816.69
2022-10-06T11:16:56.137Z,101812.19
2022-10-06T11:19:59.017Z,101815.56
2022-10-06T11:23:06.889Z,101807.66
2022-10-06T11:26:18.178Z,101803.06
2022-10-06T11:29:23.024Z,101806.00
2022-10-06T11:32:40.498Z,101801.81
2022-10-06T11:35:44.007Z,101809.72
2022-10-06T11:38:43.973Z,101796.03
2022-10-06T11:41:41.979Z,101804.50
2022-10-06T11:44:34.735Z,101803.50
2022-10-06T11:47:35.473Z,101797.59
2022-10-06T11:50:37.689Z,101800.53
2022-10-06T11:53:45.968Z,101795.22
2022-10-06T11:56:39.193Z,101794.09
2022-10-06T11:59:38.065Z,101788.13
2022-10-06T12:02:37.098Z,101784.84
2022-10-06T12:05:55.370Z,101786.25
2022-10-06T12:08:47.968Z,101795.59
2022-10-06T12:11:55.036Z,101788.66
2022-10-06T12:18:38.945Z,101777.09
2022-10-06T12:21:49.944Z,101789.00
2022-10-06T12:25:01.287Z,101784.91
2022-10-06T12:28:12.990Z,101794.81
2022-10-06T12:31:21.201Z,101788.06
2022-10-06T12:34:07.923Z,101788.97
2022-10-06T12:36:54.932Z,101777.84
2022-10-06T12:39:35.055Z,101773.69
2022-10-06T12:42:26.907Z,101776.31
2022-10-06T12:45:13.929Z,101775.59
2022-10-06T12:48:01.943Z,101775.59
2022-10-06T12:50:44.036Z,101779.00
2022-10-06T12:53:38.874Z,101777.78
2022-10-06T12:56:40.894Z,101777.34
2022-10-06T12:59:33.900Z,101766.91
2022-10-06T13:02:28.086Z,101773.25
2022-10-06T13:05:19.886Z,101773.16
2022-10-06T13:08:03.053Z,101770.44
2022-10-06T13:10:49.870Z,101772.22
2022-10-06T13:13:38.905Z,101765.78
2022-10-06T13:16:33.031Z,101763.00
2022-10-06T13:19:32.880Z,101761.81
2022-10-06T13:22:14.474Z,101760.50
2022-10-06T13:25:00.862Z,101760.78
2022-10-06T13:27:49.696Z,101766.78
2022-10-06T13:30:38.884Z,101762.66
2022-10-06T13:33:26.883Z,101758.50
2022-10-06T13:36:14.871Z,101766.75
2022-10-06T13:39:01.850Z,101763.88
2022-10-06T13:41:44.959Z,101762.44
2022-10-06T13:44:55.852Z,101753.72
2022-10-06T13:47:44.853Z,101764.91
2022-10-06T13:50:31.834Z,101758.69
2022-10-06T13:53:21.849Z,101761.34
2022-10-06T13:56:08.811Z,101753.25
2022-10-06T13:58:55.799Z,101754.88
2022-10-06T14:01:36.367Z,101758.81
2022-10-06T14:04:33.548Z,101752.41
2022-10-06T14:07:17.358Z,101743.97
2022-10-06T14:10:03.819Z,101745.81
2022-10-06T14:12:46.653Z,101754.13
2022-10-06T14:15:37.878Z,101756.72
2022-10-06T14:18:38.848Z,101750.06
2022-10-06T14:21:51.812Z,101748.41
2022-10-06T14:24:40.811Z,101748.34
2022-10-06T14:27:27.811Z,101739.50
2022-10-06T14:30:15.775Z,101740.88
2022-10-06T14:33:02.784Z,101741.28
2022-10-06T14:35:43.941Z,101738.16
2022-10-06T14:38:31.836Z,101743.41
2022-10-06T14:41:15.559Z,101747.22
2022-10-06T14:44:11.742Z,101735.09
2022-10-06T14:46:52.638Z,101747.59
2022-10-06T14:49:39.742Z,101746.47
2022-10-06T14:52:28.756Z,101742.56
2022-10-06T14:55:08.876Z,101737.25
2022-10-06T14:57:55.775Z,101740.41
2022-10-06T15:00:35.899Z,101742.91
2022-10-06T15:03:22.838Z,101744.94
2022-10-06T15:06:36.782Z,101743.97
2022-10-06T15:09:17.421Z,101743.56
2022-10-06T15:27:51.493Z,101736.34
2022-10-06T15:30:31.803Z,101744.03
2022-10-06T15:33:18.426Z,101744.44
2022-10-06T15:36:15.469Z,101742.16
2022-10-06T15:39:02.425Z,101740.53
2022-10-06T15:41:43.385Z,101739.66
2022-10-06T15:44:31.342Z,101741.94
2022-10-06T15:47:18.310Z,101742.34
2022-10-06T15:50:05.311Z,101742.38
2022-10-06T15:52:53.330Z,101748.94
2022-10-06T15:55:33.545Z,101749.94
2022-10-06T15:58:20.301Z,101745.88
2022-10-06T16:01:07.336Z,101750.66
2022-10-06T16:03:54.288Z,101754.41
2022-10-06T16:06:50.292Z,101763.47
2022-10-06T16:09:38.118Z,101759.50
2022-10-06T16:12:32.290Z,101757.25
2022-10-06T16:15:12.685Z,101761.50
2022-10-06T16:17:59.281Z,101761.50
2022-10-06T16:20:39.642Z,101762.13
2022-10-06T16:23:27.310Z,101762.63
2022-10-06T16:26:14.603Z,101766.56
2022-10-06T16:28:54.291Z,101766.22
2022-10-06T16:31:34.798Z,101764.19
2022-10-06T16:34:22.275Z,101772.06
2022-10-06T16:37:02.620Z,101772.06
2022-10-06T16:39:49.249Z,101771.06
2022-10-06T16:42:29.640Z,101772.38
2022-10-06T16:45:16.231Z,101774.84
2022-10-06T16:47:56.883Z,101775.53
2022-10-06T16:50:36.246Z,101782.56
2022-10-06T16:53:24.250Z,101782.41
2022-10-06T16:56:13.241Z,101779.47
2022-10-06T16:58:58.423Z,101777.38
2022-10-06T17:01:45.250Z,101777.03
2022-10-06T17:04:27.398Z,101781.31
2022-10-06T17:07:14.275Z,101781.13
2022-10-06T17:10:18.414Z,101792.28
2022-10-06T17:12:54.227Z,101787.16
2022-10-06T17:15:34.654Z,101790.47
2022-10-06T17:18:21.259Z,101785.53
2022-10-06T17:21:15.409Z,101790.47
2022-10-06T17:24:13.237Z,101791.09
2022-10-06T17:27:07.244Z,101789.13
2022-10-06T17:29:54.220Z,101791.16
2022-10-06T17:32:41.522Z,101791.94
2022-10-06T17:35:21.718Z,101790.34
2022-10-06T17:38:09.210Z,101796.56
2022-10-06T17:40:49.665Z,101787.88
2022-10-06T17:43:36.220Z,101798.19
2022-10-06T17:46:26.490Z,101797.72
2022-10-06T17:49:10.211Z,101798.03
2022-10-06T17:51:51.907Z,101795.06
2022-10-06T17:54:39.196Z,101794.25
2022-10-06T17:57:26.175Z,101797.38
2022-10-06T18:00:07.549Z,101798.84
2022-10-06T18:02:54.173Z,101798.03
2022-10-06T18:05:34.229Z,101795.78
2022-10-06T18:08:21.190Z,101809.69
2022-10-06T18:11:20.046Z,101805.94
2022-10-06T18:14:01.195Z,101813.94
2022-10-06T18:16:55.817Z,101809.22
2022-10-06T18:19:39.297Z,101801.66
2022-10-06T18:22:26.189Z,101801.34
2022-10-06T18:25:06.246Z,101812.81
2022-10-06T18:27:54.194Z,101817.88
2022-10-06T18:30:34.256Z,101818.06
2022-10-06T18:36:21.349Z,101822.66
2022-10-06T18:39:08.181Z,101828.53
2022-10-06T18:41:51.078Z,101818.53
2022-10-06T18:44:56.152Z,101834.59
2022-10-06T18:47:54.949Z,101834.59
2022-10-06T18:50:42.080Z,101826.25
2022-10-06T18:53:22.238Z,101827.72
2022-10-06T18:56:09.121Z,101831.47
2022-10-06T18:58:50.164Z,101833.44
2022-10-06T19:01:38.243Z,101829.84
2022-10-06T19:04:20.188Z,101832.00
2022-10-06T19:07:07.114Z,101830.66
2022-10-06T19:09:54.082Z,101833.63
2022-10-06T19:12:41.198Z,101835.25
2022-10-06T19:15:21.598Z,101830.34
2022-10-06T19:18:02.366Z,101833.13
2022-10-06T19:20:49.102Z,101829.69
2022-10-06T19:23:39.827Z,101836.69
2022-10-06T19:26:20.215Z,101834.06
2022-10-06T19:29:10.994Z,101835.03
2022-10-06T19:31:52.107Z,101846.00
2022-10-06T19:34:37.377Z,101845.38
2022-10-06T19:37:24.084Z,101844.69
2022-10-06T19:40:12.028Z,101849.59
2022-10-06T19:42:52.185Z,101848.59
2022-10-06T19:45:39.119Z,101848.78
2022-10-06T19:48:27.063Z,101847.63
2022-10-06T19:51:16.283Z,101840.78
2022-10-06T19:54:04.039Z,101845.97
2022-10-06T19:56:54.036Z,101845.84
2022-10-06T19:59:34.156Z,101848.47
2022-10-06T20:02:21.059Z,101848.47
2022-10-06T20:05:01.198Z,101850.94
2022-10-06T20:07:50.067Z,101847.44
2022-10-06T20:10:30.133Z,101859.06
2022-10-06T20:13:17.063Z,101842.66
2022-10-06T20:15:58.030Z,101852.81
2022-10-06T20:18:46.999Z,101849.50
2022-10-06T20:21:31.327Z,101847.53
2022-10-06T20:24:24.997Z,101845.00
2022-10-06T20:27:19.031Z,101847.25
2022-10-06T20:29:59.585Z,101851.88
2022-10-06T20:32:45.993Z,101845.69
2022-10-06T20:35:33.025Z,101850.41
2022-10-06T20:38:13.135Z,101841.66
2022-10-06T20:40:59.981Z,101836.88
2022-10-06T20:43:41.600Z,101841.63
2022-10-06T20:46:28.035Z,101844.13
2022-10-06T20:49:11.193Z,101846.25
2022-10-06T20:51:58.989Z,101845.34
2022-10-06T20:54:39.064Z,101838.78
2022-10-06T20:57:28.148Z,101828.81
2022-10-06T21:00:11.072Z,101839.53
2022-10-06T21:02:57.977Z,101836.22
2022-10-06T21:05:38.062Z,101837.16
2022-10-06T21:08:24.936Z,101827.81
2022-10-06T21:11:07.045Z,101823.53
2022-10-06T21:14:02.921Z,101827.44
2022-10-06T21:16:50.913Z,101828.56
2022-10-06T21:19:38.070Z,101825.19
2022-10-06T21:22:18.044Z,101821.41
2022-10-06T21:25:04.911Z,101818.28
2022-10-06T21:27:53.940Z,101819.56
2022-10-06T21:30:40.909Z,101817.19
2022-10-06T21:33:22.634Z,101814.88
2022-10-06T21:36:11.965Z,101807.94
2022-10-06T21:38:57.082Z,101812.78
2022-10-06T21:41:47.918Z,101817.81
2022-10-06T21:44:34.876Z,101812.19
2022-10-06T21:47:15.394Z,101812.19
2022-10-06T21:50:01.877Z,101809.00
2022-10-06T21:52:48.900Z,101804.78
2022-10-06T21:55:35.872Z,101799.69
2022-10-06T21:58:22.889Z,101795.44
2022-10-06T22:01:03.037Z,101797.19
2022-10-06T22:03:49.852Z,101804.00
2022-10-06T22:06:37.892Z,101802.66
2022-10-06T22:09:20.405Z,101802.25
2022-10-06T22:12:06.862Z,101806.97
2022-10-06T22:14:53.877Z,101802.16
2022-10-06T22:17:33.975Z,101804.72
2022-10-06T22:20:20.978Z,101806.38
2022-10-06T22:23:07.836Z,101802.66
2022-10-06T22:26:10.866Z,101802.78
2022-10-06T22:28:53.100Z,101807.78
2022-10-06T22:31:40.861Z,101808.81
2022-10-06T22:34:27.841Z,101803.47
2022-10-06T22:37:07.951Z,101806.56
2022-10-06T22:39:54.878Z,101813.66
2022-10-06T22:42:41.796Z,101809.03
2022-10-06T22:45:28.784Z,101806.75
2022-10-06T22:48:08.930Z,101809.03
2022-10-06T22:50:56.825Z,101809.31
2022-10-06T22:53:43.849Z,101803.59
2022-10-06T22:56:30.832Z,101804.50
2022-10-06T22:59:17.848Z,101805.41
2022-10-06T23:02:04.845Z,101807.28
2022-10-06T23:04:44.877Z,101804.78
2022-10-06T23:07:31.837Z,101800.38
2022-10-06T23:10:11.910Z,101806.13
2022-10-06T23:13:03.811Z,101803.56
2022-10-06T23:15:44.050Z,101817.72
2022-10-06T23:18:30.809Z,101808.31
2022-10-06T23:21:21.669Z,101805.28
2022-10-06T23:24:08.800Z,101803.06
2022-10-06T23:27:08.803Z,101801.50
2022-10-06T23:29:55.768Z,101803.78
2022-10-06T23:32:37.517Z,101803.66
2022-10-06T23:35:23.785Z,101806.72
2022-10-06T23:38:03.885Z,101797.38
2022-10-06T23:40:50.768Z,101800.13
2022-10-06T23:43:31.868Z,101798.28
2022-10-06T23:46:18.831Z,101802.91
2022-10-06T23:48:58.833Z,101806.03
2022-10-06T23:51:45.785Z,101803.06
2022-10-06T23:54:25.857Z,101803.34
2022-10-06T23:57:12.775Z,101797.31
2022-10-06T23:59:52.876Z,101797.06
